createdAt,value
2018-04-06T00:01:45.524Z,93.40
2018-04-06T00:04:14.085Z,93.40
2018-04-06T00:06:42.481Z,94.00
2018-04-06T00:09:10.655Z,93.90
2018-04-06T00:11:39.040Z,94.20
2018-04-06T00:14:07.310Z,94.00
2018-04-06T00:16:35.690Z,94.20
2018-04-06T00:19:03.961Z,94.00
2018-04-06T00:21:32.135Z,94.20
2018-04-06T00:24:00.166Z,94.20
2018-04-06T00:26:28.279Z,94.50
2018-04-06T00:28:56.819Z,94.40
2018-04-06T00:31:25.109Z,94.60
2018-04-06T00:33:53.211Z,94.50
2018-04-06T00:36:21.574Z,94.90
2018-04-06T00:38:49.849Z,94.50
2018-04-06T00:41:17.835Z,94.70
2018-04-06T00:43:46.928Z,94.70
2018-04-06T00:46:15.476Z,94.70
2018-04-06T00:48:43.582Z,94.60
2018-04-06T00:51:11.549Z,94.60
2018-04-06T00:53:48.426Z,95.00
2018-04-06T00:56:16.564Z,95.30
2018-04-06T00:58:44.766Z,95.40
2018-04-06T01:01:13.155Z,95.10
2018-04-06T01:03:41.180Z,95.40
2018-04-06T01:06:09.263Z,95.90
2018-04-06T01:08:37.265Z,95.50
2018-04-06T01:11:05.530Z,96.00
2018-04-06T01:13:34.226Z,95.70
2018-04-06T01:16:03.664Z,96.80
2018-04-06T01:18:32.519Z,95.30
2018-04-06T01:21:00.550Z,95.30
2018-04-06T01:23:28.449Z,95.80
2018-04-06T01:25:56.833Z,95.70
2018-04-06T01:28:24.899Z,95.30
2018-04-06T01:30:53.075Z,95.80
2018-04-06T01:33:21.250Z,95.80
2018-04-06T01:35:49.404Z,96.00
2018-04-06T01:38:17.590Z,96.40
2018-04-06T01:40:46.083Z,95.50
2018-04-06T01:43:14.245Z,95.50
2018-04-06T01:45:42.726Z,95.20
2018-04-06T01:48:10.768Z,95.30
2018-04-06T01:50:38.669Z,94.80
2018-04-06T01:53:06.836Z,95.00
2018-04-06T01:55:35.215Z,94.70
2018-04-06T01:58:03.363Z,94.60
2018-04-06T02:00:31.869Z,94.80
2018-04-06T02:02:59.940Z,94.50
2018-04-06T02:05:28.631Z,94.40
2018-04-06T02:07:56.776Z,93.90
2018-04-06T02:10:25.079Z,94.00
2018-04-06T02:12:53.158Z,94.10
2018-04-06T02:15:21.015Z,94.70
2018-04-06T02:17:49.091Z,94.30
2018-04-06T02:20:17.360Z,94.10
2018-04-06T02:22:45.430Z,94.40
2018-04-06T02:25:14.120Z,93.70
2018-04-06T02:27:42.395Z,93.70
2018-04-06T02:30:10.461Z,93.80
2018-04-06T02:32:40.075Z,94.80
2018-04-06T02:35:08.241Z,94.80
2018-04-06T02:37:36.105Z,94.90
2018-04-06T02:40:04.286Z,94.80
2018-04-06T02:42:32.526Z,95.10
2018-04-06T02:45:00.425Z,94.70
2018-04-06T02:47:28.609Z,95.20
2018-04-06T02:49:57.444Z,94.30
2018-04-06T02:52:25.557Z,94.30
2018-04-06T02:54:53.528Z,94.40
2018-04-06T02:57:21.499Z,94.10
2018-04-06T02:59:49.755Z,93.70
2018-04-06T03:02:18.050Z,93.20
2018-04-06T03:04:46.118Z,93.20
2018-04-06T03:07:14.290Z,92.70
2018-04-06T03:09:42.639Z,92.20
2018-04-06T03:12:11.745Z,92.70
2018-04-06T03:14:40.146Z,92.30
2018-04-06T03:17:08.185Z,92.60
2018-04-06T03:19:36.180Z,92.60
2018-04-06T03:22:04.561Z,92.50
2018-04-06T03:24:32.733Z,92.60
2018-04-06T03:27:00.805Z,93.10
2018-04-06T03:29:28.981Z,93.60
2018-04-06T03:31:57.320Z,93.50
2018-04-06T03:34:25.630Z,92.90
2018-04-06T03:36:53.496Z,92.90
2018-04-06T03:39:21.632Z,92.20
2018-04-06T03:41:50.047Z,92.40
2018-04-06T03:44:18.402Z,92.20
2018-04-06T03:46:46.595Z,92.60
2018-04-06T03:49:14.875Z,92.60
2018-04-06T03:51:43.115Z,92.90
2018-04-06T03:54:12.315Z,93.30
2018-04-06T03:56:40.423Z,92.70
2018-04-06T03:59:08.387Z,93.50
2018-04-06T04:01:36.556Z,93.70
2018-04-06T04:04:04.708Z,93.40
2018-04-06T04:06:32.804Z,93.20
2018-04-06T04:09:00.974Z,93.60
2018-04-06T04:11:29.151Z,94.00
2018-04-06T04:13:57.559Z,94.20
2018-04-06T04:16:26.526Z,94.00
2018-04-06T04:18:54.590Z,94.00
2018-04-06T04:21:22.770Z,94.40
2018-04-06T04:23:50.810Z,93.50
2018-04-06T04:26:18.813Z,93.90
2018-04-06T04:28:46.878Z,94.00
2018-04-06T04:31:14.952Z,94.30
2018-04-06T04:33:43.090Z,94.00
2018-04-06T04:36:11.306Z,93.90
2018-04-06T04:38:39.675Z,93.60
2018-04-06T04:41:07.639Z,93.50
2018-04-06T04:43:36.532Z,94.10
2018-04-06T04:46:04.565Z,93.80
2018-04-06T04:48:32.672Z,94.30
2018-04-06T04:51:00.848Z,93.20
2018-04-06T04:53:29.020Z,93.80
2018-04-06T04:55:57.150Z,93.30
2018-04-06T04:58:25.508Z,92.30
2018-04-06T05:00:54.765Z,92.20
2018-04-06T05:03:23.761Z,91.40
2018-04-06T05:05:51.865Z,91.70
2018-04-06T05:08:21.013Z,90.60
2018-04-06T05:10:49.213Z,90.50
2018-04-06T05:13:17.471Z,90.00
2018-04-06T05:15:46.030Z,89.30
2018-04-06T05:18:14.242Z,89.00
2018-04-06T05:20:42.710Z,89.00
2018-04-06T05:23:10.746Z,88.10
2018-04-06T05:25:38.861Z,87.60
2018-04-06T05:28:06.894Z,87.80
2018-04-06T05:30:34.975Z,88.80
2018-04-06T05:33:03.283Z,88.30
2018-04-06T05:35:31.550Z,87.30
2018-04-06T05:37:59.622Z,88.10
2018-04-06T05:40:28.390Z,84.30
2018-04-06T05:42:57.092Z,84.10
2018-04-06T05:45:25.583Z,84.80
2018-04-06T05:47:53.910Z,82.20
2018-04-06T05:50:21.925Z,83.90
2018-04-06T05:52:50.097Z,85.10
2018-04-06T05:55:18.453Z,84.50
2018-04-06T05:57:46.549Z,81.70
2018-04-06T06:00:14.715Z,82.20
2018-04-06T06:02:43.152Z,83.00
2018-04-06T06:05:11.731Z,84.30
2018-04-06T06:07:40.512Z,83.00
2018-04-06T06:10:08.532Z,83.20
2018-04-06T06:12:36.710Z,79.10
2018-04-06T06:15:04.754Z,75.50
2018-04-06T06:17:32.645Z,76.20
2018-04-06T06:20:01.615Z,75.80
2018-04-06T06:22:29.470Z,74.60
2018-04-06T06:24:57.369Z,73.50
2018-04-06T06:27:26.540Z,73.30
2018-04-06T06:29:54.556Z,73.20
2018-04-06T06:32:23.890Z,73.20
2018-04-06T06:34:52.011Z,73.20
2018-04-06T06:37:19.883Z,72.50
2018-04-06T06:39:48.010Z,71.20
2018-04-06T06:42:16.120Z,70.40
2018-04-06T06:44:44.198Z,67.50
2018-04-06T06:47:12.360Z,64.50
2018-04-06T06:49:40.337Z,62.70
2018-04-06T06:52:08.504Z,61.20
2018-04-06T06:54:36.574Z,58.60
2018-04-06T06:57:04.824Z,60.40
2018-04-06T06:59:33.131Z,62.60
2018-04-06T07:02:01.300Z,60.10
2018-04-06T07:04:29.276Z,57.20
2018-04-06T07:06:57.751Z,56.60
2018-04-06T07:09:25.791Z,56.10
2018-04-06T07:11:54.095Z,53.70
2018-04-06T07:14:22.377Z,53.20
2018-04-06T07:16:50.508Z,49.70
2018-04-06T07:19:18.422Z,46.30
2018-04-06T07:21:46.439Z,47.90
2018-04-06T07:24:14.755Z,46.60
2018-04-06T07:26:42.843Z,45.10
2018-04-06T07:29:11.527Z,42.70
2018-04-06T07:31:40.065Z,42.70
2018-04-06T07:34:08.278Z,43.10
2018-04-06T07:36:36.441Z,41.30
2018-04-06T07:39:04.586Z,42.80
2018-04-06T07:41:32.589Z,44.40
2018-04-06T07:44:00.763Z,45.50
2018-04-06T07:46:28.831Z,44.60
2018-04-06T07:48:56.907Z,45.40
2018-04-06T07:51:25.177Z,46.70
2018-04-06T07:53:53.254Z,47.50
2018-04-06T07:56:22.345Z,46.80
2018-04-06T07:58:50.688Z,42.70
2018-04-06T08:01:18.905Z,42.80
2018-04-06T08:03:46.721Z,44.60
2018-04-06T08:06:14.901Z,44.10
2018-04-06T08:08:43.311Z,43.90
2018-04-06T08:11:11.493Z,43.30
2018-04-06T08:13:39.687Z,42.40
2018-04-06T08:16:08.448Z,41.40
2018-04-06T08:18:36.928Z,41.30
2018-04-06T08:21:05.484Z,39.30
2018-04-06T08:23:33.377Z,38.60
2018-04-06T08:26:01.559Z,37.50
2018-04-06T08:28:29.628Z,37.50
2018-04-06T08:30:57.489Z,38.30
2018-04-06T08:33:26.172Z,37.90
2018-04-06T08:35:54.341Z,36.70
2018-04-06T08:38:22.522Z,36.10
2018-04-06T08:40:50.386Z,35.80
2018-04-06T08:43:18.557Z,34.20
2018-04-06T08:45:46.807Z,33.80
2018-04-06T08:48:14.907Z,34.20
2018-04-06T08:50:43.252Z,33.00
2018-04-06T08:53:11.462Z,33.00
2018-04-06T08:55:39.526Z,31.30
2018-04-06T08:58:07.396Z,31.20
2018-04-06T09:00:35.647Z,29.70
2018-04-06T09:03:03.953Z,29.70
2018-04-06T09:05:32.122Z,32.90
2018-04-06T09:08:00.378Z,32.40
2018-04-06T09:10:28.671Z,29.90
2018-04-06T09:12:56.743Z,30.00
2018-04-06T09:15:24.997Z,30.10
2018-04-06T09:17:53.102Z,28.90
2018-04-06T09:20:20.952Z,28.80
2018-04-06T09:22:49.127Z,29.80
2018-04-06T09:25:17.268Z,29.80
2018-04-06T09:27:45.627Z,27.80
2018-04-06T09:30:13.860Z,27.80
2018-04-06T09:32:41.914Z,27.70
2018-04-06T09:35:10.201Z,28.60
2018-04-06T09:37:38.167Z,28.20
2018-04-06T09:40:06.366Z,27.50
2018-04-06T09:42:35.436Z,26.90
2018-04-06T09:45:03.620Z,26.90
2018-04-06T09:47:31.687Z,25.60
2018-04-06T09:49:59.551Z,25.60
2018-04-06T09:52:27.622Z,25.90
2018-04-06T09:54:55.792Z,25.30
2018-04-06T09:57:23.890Z,26.70
2018-04-06T09:59:52.752Z,24.50
2018-04-06T10:02:20.933Z,24.50
2018-04-06T10:04:48.897Z,25.80
2018-04-06T10:07:17.148Z,27.30
2018-04-06T10:09:45.242Z,25.30
2018-04-06T10:12:13.526Z,25.70
2018-04-06T10:14:42.512Z,25.60
2018-04-06T10:17:10.992Z,25.70
2018-04-06T10:19:39.061Z,25.00
2018-04-06T10:22:07.442Z,24.40
2018-04-06T10:24:35.512Z,24.60
2018-04-06T10:27:03.887Z,26.00
2018-04-06T10:29:32.266Z,26.70
2018-04-06T10:32:00.408Z,25.30
2018-04-06T10:34:28.921Z,24.70
2018-04-06T10:36:56.884Z,24.20
2018-04-06T10:39:25.140Z,25.30
2018-04-06T10:41:53.541Z,25.60
2018-04-06T10:44:21.695Z,25.00
2018-04-06T10:46:49.951Z,22.80
2018-04-06T10:49:18.267Z,23.30
2018-04-06T10:51:47.311Z,24.70
2018-04-06T10:54:15.332Z,23.20
2018-04-06T10:56:43.922Z,24.30
2018-04-06T10:59:12.397Z,23.60
2018-04-06T11:01:40.361Z,25.60
2018-04-06T11:04:08.650Z,23.20
2018-04-06T11:06:36.716Z,21.80
2018-04-06T11:09:06.409Z,24.00
2018-04-06T11:11:34.591Z,24.10
2018-04-06T11:14:02.564Z,22.60
2018-04-06T11:16:30.728Z,22.60
2018-04-06T11:18:59.238Z,21.50
2018-04-06T11:21:28.211Z,20.90
2018-04-06T11:23:56.282Z,20.90
2018-04-06T11:26:24.458Z,20.10
2018-04-06T11:28:52.440Z,21.30
2018-04-06T11:31:21.626Z,21.60
2018-04-06T11:33:51.037Z,22.60
2018-04-06T11:36:19.187Z,22.60
2018-04-06T11:38:47.580Z,20.80
2018-04-06T11:41:16.149Z,21.40
2018-04-06T11:43:44.440Z,20.00
2018-04-06T11:46:12.692Z,21.60
2018-04-06T11:48:40.887Z,23.50
2018-04-06T11:51:11.206Z,21.90
2018-04-06T11:53:39.382Z,21.40
2018-04-06T11:56:07.230Z,20.70
2018-04-06T11:58:35.626Z,24.30
2018-04-06T12:01:03.797Z,22.80
2018-04-06T12:03:31.817Z,21.00
2018-04-06T12:06:00.101Z,21.00
2018-04-06T12:08:28.216Z,21.50
2018-04-06T12:10:56.387Z,21.10
2018-04-06T12:13:24.461Z,21.20
2018-04-06T12:15:52.631Z,20.60
2018-04-06T12:18:20.807Z,21.30
2018-04-06T12:20:48.981Z,21.40
2018-04-06T12:23:17.359Z,20.40
2018-04-06T12:25:45.531Z,22.90
2018-04-06T12:28:13.706Z,21.50
2018-04-06T12:30:41.784Z,22.20
2018-04-06T12:33:10.107Z,22.70
2018-04-06T12:35:39.147Z,21.10
2018-04-06T12:38:07.250Z,21.60
2018-04-06T12:40:36.447Z,21.90
2018-04-06T12:43:05.706Z,21.50
2018-04-06T12:45:33.585Z,21.60
2018-04-06T12:48:01.958Z,22.40
2018-04-06T12:50:29.934Z,24.90
2018-04-06T12:52:58.304Z,21.70
2018-04-06T12:55:26.770Z,21.70
2018-04-06T12:57:55.044Z,23.30
2018-04-06T13:00:23.719Z,20.80
2018-04-06T13:02:52.108Z,23.80
2018-04-06T13:05:20.650Z,23.10
2018-04-06T13:07:49.008Z,22.00
2018-04-06T13:10:17.741Z,21.30
2018-04-06T13:12:45.850Z,21.20
2018-04-06T13:15:14.098Z,20.40
2018-04-06T13:17:42.499Z,20.70
2018-04-06T13:20:10.683Z,19.90
2018-04-06T13:22:38.949Z,19.60
2018-04-06T13:25:06.985Z,20.90
2018-04-06T13:27:35.450Z,20.90
2018-04-06T13:30:03.481Z,20.50
2018-04-06T13:32:31.677Z,22.10
2018-04-06T13:35:00.846Z,22.80
2018-04-06T13:37:28.804Z,22.80
2018-04-06T13:39:57.084Z,22.80
2018-04-06T13:42:26.485Z,23.80
2018-04-06T13:44:54.760Z,23.00
2018-04-06T13:47:22.843Z,23.10
2018-04-06T13:49:51.005Z,23.80
2018-04-06T13:52:19.179Z,24.70
2018-04-06T13:54:47.251Z,24.00
2018-04-06T13:57:15.614Z,24.00
2018-04-06T13:59:43.686Z,23.70
2018-04-06T14:02:11.770Z,23.60
2018-04-06T14:04:40.347Z,23.00
2018-04-06T14:07:08.840Z,22.50
2018-04-06T14:09:36.917Z,22.20
2018-04-06T14:12:05.055Z,23.50
2018-04-06T14:14:33.368Z,21.30
2018-04-06T14:17:01.924Z,21.40
2018-04-06T14:19:30.315Z,22.60
2018-04-06T14:21:58.490Z,23.30
2018-04-06T14:24:26.654Z,22.30
2018-04-06T14:26:54.835Z,21.90
2018-04-06T14:29:23.215Z,22.20
2018-04-06T14:31:51.496Z,23.20
2018-04-06T14:34:19.772Z,22.50
2018-04-06T14:36:48.048Z,22.10
2018-04-06T14:39:16.336Z,21.90
2018-04-06T14:41:44.666Z,21.90
2018-04-06T14:44:12.894Z,23.00
2018-04-06T14:46:41.730Z,21.00
2018-04-06T14:49:09.936Z,20.90
2018-04-06T14:51:38.005Z,21.80
2018-04-06T14:54:06.092Z,20.40
2018-04-06T14:56:34.045Z,20.70
2018-04-06T14:59:02.225Z,20.90
2018-04-06T15:01:30.508Z,22.40
2018-04-06T15:03:58.570Z,22.60
2018-04-06T15:06:26.705Z,22.40
2018-04-06T15:08:55.119Z,22.40
2018-04-06T15:11:23.155Z,22.00
2018-04-06T15:13:51.055Z,22.00
2018-04-06T15:16:19.449Z,21.60
2018-04-06T15:18:47.406Z,23.10
2018-04-06T15:21:15.625Z,22.60
2018-04-06T15:23:43.855Z,22.10
2018-04-06T15:26:11.925Z,21.90
2018-04-06T15:28:40.097Z,22.40
2018-04-06T15:31:08.270Z,22.10
2018-04-06T15:33:36.340Z,22.30
2018-04-06T15:36:04.559Z,23.80
2018-04-06T15:38:32.698Z,23.80
2018-04-06T15:41:00.658Z,24.50
2018-04-06T15:43:28.842Z,26.10
2018-04-06T15:45:56.900Z,25.40
2018-04-06T15:48:25.479Z,25.20
2018-04-06T15:50:53.728Z,25.00
2018-04-06T15:53:21.826Z,25.00
2018-04-06T15:55:50.213Z,25.60
2018-04-06T15:58:18.072Z,25.00
2018-04-06T16:00:46.250Z,24.70
2018-04-06T16:03:14.634Z,25.90
2018-04-06T16:05:42.755Z,25.50
2018-04-06T16:08:11.051Z,24.80
2018-04-06T16:10:39.738Z,25.50
2018-04-06T16:13:07.830Z,27.10
2018-04-06T16:15:36.122Z,27.10
2018-04-06T16:18:04.075Z,28.10
2018-04-06T16:20:31.940Z,27.20
2018-04-06T16:23:00.215Z,27.80
2018-04-06T16:25:28.293Z,28.60
2018-04-06T16:27:56.534Z,28.80
2018-04-06T16:30:24.740Z,28.60
2018-04-06T16:32:52.705Z,29.20
2018-04-06T16:35:21.071Z,29.30
2018-04-06T16:37:49.054Z,30.10
2018-04-06T16:40:17.019Z,29.70
2018-04-06T16:42:44.990Z,29.60
2018-04-06T16:45:13.059Z,30.00
2018-04-06T16:47:41.466Z,30.00
2018-04-06T16:50:10.709Z,30.60
2018-04-06T16:52:38.915Z,30.50
2018-04-06T16:55:06.978Z,31.60
2018-04-06T16:57:35.333Z,31.60
2018-04-06T17:00:03.338Z,32.80
2018-04-06T17:02:31.399Z,33.90
2018-04-06T17:04:59.483Z,33.40
2018-04-06T17:07:29.154Z,34.30
2018-04-06T17:09:57.252Z,35.60
2018-04-06T17:12:25.126Z,35.60
2018-04-06T17:14:54.100Z,36.80
2018-04-06T17:17:22.164Z,36.80
2018-04-06T17:19:50.164Z,36.50
2018-04-06T17:22:18.322Z,36.20
2018-04-06T17:24:46.669Z,37.60
2018-04-06T17:27:14.975Z,39.90
2018-04-06T17:29:43.125Z,40.20
2018-04-06T17:32:11.594Z,37.40
2018-04-06T17:34:39.905Z,39.60
2018-04-06T17:37:08.171Z,41.80
2018-04-06T17:39:36.151Z,42.80
2018-04-06T17:42:04.330Z,43.50
2018-04-06T17:44:32.810Z,44.00
2018-04-06T17:47:01.086Z,43.60
2018-04-06T17:49:29.359Z,45.80
2018-04-06T17:51:57.530Z,46.30
2018-04-06T17:54:25.600Z,46.50
2018-04-06T17:56:53.880Z,46.40
2018-04-06T17:59:22.150Z,46.50
2018-04-06T18:01:50.430Z,47.50
2018-04-06T18:04:19.629Z,46.60
2018-04-06T18:06:47.770Z,46.60
2018-04-06T18:09:15.890Z,45.60
2018-04-06T18:11:44.850Z,45.80
2018-04-06T18:14:13.031Z,45.70
2018-04-06T18:16:41.209Z,48.40
2018-04-06T18:19:09.380Z,48.50
2018-04-06T18:21:37.451Z,49.10
2018-04-06T18:24:05.506Z,48.50
2018-04-06T18:26:33.700Z,48.70
2018-04-06T18:29:01.975Z,49.10
2018-04-06T18:31:30.144Z,50.00
2018-04-06T18:33:58.217Z,46.10
2018-04-06T18:36:26.396Z,48.80
2018-04-06T18:38:55.061Z,49.50
2018-04-06T18:41:23.315Z,55.20
2018-04-06T18:43:51.932Z,53.20
2018-04-06T18:46:20.530Z,52.30
2018-04-06T18:48:49.414Z,49.30
2018-04-06T18:51:17.579Z,49.20
2018-04-06T18:53:45.451Z,54.60
2018-04-06T18:56:13.415Z,55.10
2018-04-06T18:58:41.693Z,56.30
2018-04-06T19:01:09.665Z,55.20
2018-04-06T19:03:37.940Z,54.90
2018-04-06T19:06:05.995Z,50.80
2018-04-06T19:08:33.974Z,55.90
2018-04-06T19:11:02.358Z,55.40
2018-04-06T19:13:30.700Z,55.40
2018-04-06T19:15:59.295Z,56.30
2018-04-06T19:18:27.499Z,54.80
2018-04-06T19:20:55.898Z,55.90
2018-04-06T19:23:24.729Z,55.30
2018-04-06T19:25:53.336Z,55.40
2018-04-06T19:28:21.415Z,55.90
2018-04-06T19:30:49.380Z,55.20
2018-04-06T19:33:17.550Z,56.80
2018-04-06T19:35:45.725Z,58.40
2018-04-06T19:38:14.125Z,59.60
2018-04-06T19:40:43.269Z,54.20
2018-04-06T19:43:11.270Z,54.10
2018-04-06T19:45:39.621Z,57.50
2018-04-06T19:48:07.621Z,59.00
2018-04-06T19:50:35.590Z,57.10
2018-04-06T19:53:03.760Z,59.10
2018-04-06T19:55:32.018Z,61.40
2018-04-06T19:58:00.204Z,60.40
2018-04-06T20:00:28.385Z,60.70
2018-04-06T20:02:56.554Z,62.20
2018-04-06T20:05:24.800Z,62.30
2018-04-06T20:07:53.213Z,63.60
2018-04-06T20:10:21.251Z,60.00
2018-04-06T20:12:49.354Z,61.90
2018-04-06T20:15:17.835Z,62.70
2018-04-06T20:17:45.899Z,58.90
2018-04-06T20:20:14.151Z,58.10
2018-04-06T20:22:42.355Z,59.20
2018-04-06T20:25:10.525Z,60.30
2018-04-06T20:27:38.490Z,60.90
2018-04-06T20:30:06.546Z,61.50
2018-04-06T20:32:34.434Z,60.20
2018-04-06T20:35:02.761Z,62.50
2018-04-06T20:37:31.172Z,63.00
2018-04-06T20:39:59.443Z,61.80
2018-04-06T20:42:27.952Z,58.30
2018-04-06T20:44:56.020Z,60.90
2018-04-06T20:47:24.296Z,63.10
2018-04-06T20:49:52.460Z,59.70
2018-04-06T20:52:20.325Z,60.10
2018-04-06T20:54:48.205Z,60.40
2018-04-06T20:57:16.477Z,64.90
2018-04-06T20:59:44.539Z,63.10
2018-04-06T21:02:12.404Z,65.60
2018-04-06T21:04:40.691Z,60.70
2018-04-06T21:07:09.060Z,61.60
2018-04-06T21:09:37.410Z,59.50
2018-04-06T21:12:05.623Z,61.30
2018-04-06T21:14:33.482Z,61.30
2018-04-06T21:17:01.351Z,60.40
2018-04-06T21:19:30.193Z,59.80
2018-04-06T21:21:58.292Z,59.80
2018-04-06T21:24:26.656Z,62.50
2018-04-06T21:26:55.270Z,62.10
2018-04-06T21:29:23.243Z,63.70
2018-04-06T21:31:51.513Z,62.90
2018-04-06T21:34:19.585Z,62.80
2018-04-06T21:36:47.624Z,63.90
2018-04-06T21:39:15.631Z,61.40
2018-04-06T21:41:43.885Z,62.20
2018-04-06T21:44:11.970Z,64.30
2018-04-06T21:46:40.455Z,63.30
2018-04-06T21:49:08.420Z,66.40
2018-04-06T21:51:36.682Z,67.00
2018-04-06T21:54:04.870Z,69.10
2018-04-06T21:56:33.028Z,64.90
2018-04-06T21:59:01.110Z,65.40
2018-04-06T22:01:29.635Z,63.60
2018-04-06T22:03:58.379Z,65.30
2018-04-06T22:06:26.360Z,65.30
2018-04-06T22:08:54.609Z,66.50
2018-04-06T22:11:23.000Z,65.20
2018-04-06T22:13:51.385Z,65.50
2018-04-06T22:16:19.455Z,65.00
2018-04-06T22:18:47.420Z,63.70
2018-04-06T22:21:15.285Z,64.60
2018-04-06T22:23:43.154Z,66.50
2018-04-06T22:26:11.503Z,67.60
2018-04-06T22:28:40.125Z,69.60
2018-04-06T22:31:08.186Z,69.00
2018-04-06T22:33:36.358Z,68.40
2018-04-06T22:36:04.706Z,67.80
2018-04-06T22:38:32.806Z,68.00
2018-04-06T22:41:01.185Z,69.70
2018-04-06T22:43:29.460Z,69.10
2018-04-06T22:45:57.439Z,70.00
2018-04-06T22:48:25.611Z,69.50
2018-04-06T22:50:53.745Z,70.10
2018-04-06T22:53:21.954Z,70.90
2018-04-06T22:55:49.915Z,71.40
2018-04-06T22:58:18.095Z,70.90
2018-04-06T23:00:46.270Z,69.60
2018-04-06T23:03:14.130Z,72.20
2018-04-06T23:05:42.404Z,73.00
2018-04-06T23:08:10.585Z,72.40
2018-04-06T23:10:38.755Z,72.80
2018-04-06T23:13:06.795Z,72.50
2018-04-06T23:15:35.175Z,72.50
2018-04-06T23:18:03.374Z,71.70
2018-04-06T23:20:31.754Z,70.40
2018-04-06T23:23:00.035Z,69.50
2018-04-06T23:25:28.820Z,71.00
2018-04-06T23:27:57.082Z,71.00
2018-04-06T23:30:25.178Z,70.00
2018-04-06T23:32:53.445Z,72.30
2018-04-06T23:35:21.715Z,71.70
2018-04-06T23:37:52.247Z,74.70
2018-04-06T23:40:20.691Z,72.60
2018-04-06T23:42:48.896Z,72.30
2018-04-06T23:45:16.970Z,70.30
2018-04-06T23:47:45.509Z,71.30
2018-04-06T23:50:13.420Z,69.50
2018-04-06T23:52:41.489Z,72.50
2018-04-06T23:55:09.462Z,70.40
2018-04-06T23:57:37.617Z,72.10
